sensor_id;sensor_type;location;lat;lon;timestamp;pressure;altitude;pressure_sealevel;temperature;humidity
63006;BME280;53704;52.532;6.426;2022-12-07T00:00:50;101694.22;;;2.43;100.00
63006;BME280;53704;52.532;6.426;2022-12-07T00:03:16;101689.91;;;2.57;100.00
63006;BME280;53704;52.532;6.426;2022-12-07T00:05:41;101690.25;;;2.50;100.00
63006;BME280;53704;52.532;6.426;2022-12-07T00:08:06;101685.09;;;2.33;100.00
63006;BME280;53704;52.532;6.426;2022-12-07T00:10:33;101684.94;;;2.50;100.00
63006;BME280;53704;52.532;6.426;2022-12-07T00:12:59;101689.25;;;2.37;100.00
63006;BME280;53704;52.532;6.426;2022-12-07T00:15:24;101694.22;;;2.43;100.00
63006;BME280;53704;52.532;6.426;2022-12-07T00:17:49;101690.72;;;2.43;100.00
63006;BME280;53704;52.532;6.426;2022-12-07T00:20:17;101691.28;;;2.17;100.00
63006;BME280;53704;52.532;6.426;2022-12-07T00:22:43;101690.75;;;2.27;100.00
63006;BME280;53704;52.532;6.426;2022-12-07T00:25:08;101685.44;;;2.27;100.00
63006;BME280;53704;52.532;6.426;2022-12-07T00:27:33;101674.22;;;2.22;100.00
63006;BME280;53704;52.532;6.426;2022-12-07T00:29:59;101669.78;;;2.06;100.00
63006;BME280;53704;52.532;6.426;2022-12-07T00:32:24;101670.81;;;2.04;100.00
63006;BME280;53704;52.532;6.426;2022-12-07T00:34:49;101674.44;;;2.03;100.00
63006;BME280;53704;52.532;6.426;2022-12-07T00:37:15;101664.47;;;2.06;100.00
63006;BME280;53704;52.532;6.426;2022-12-07T00:39:40;101673.13;;;2.10;100.00
63006;BME280;53704;52.532;6.426;2022-12-07T00:42:06;101667.88;;;2.08;100.00
63006;BME280;53704;52.532;6.426;2022-12-07T00:44:31;101672.28;;;2.09;100.00
63006;BME280;53704;52.532;6.426;2022-12-07T00:46:56;101672.09;;;2.12;100.00
63006;BME280;53704;52.532;6.426;2022-12-07T00:49:22;101658.63;;;2.15;100.00
63006;BME280;53704;52.532;6.426;2022-12-07T00:51:48;101669.34;;;2.14;100.00
63006;BME280;53704;52.532;6.426;2022-12-07T00:54:14;101666.13;;;2.39;100.00
63006;BME280;53704;52.532;6.426;2022-12-07T00:56:39;101670.59;;;2.23;100.00
63006;BME280;53704;52.532;6.426;2022-12-07T00:59:04;101663.78;;;2.19;100.00
63006;BME280;53704;52.532;6.426;2022-12-07T01:01:35;101661.69;;;2.24;100.00
63006;BME280;53704;52.532;6.426;2022-12-07T01:04:02;101658.78;;;2.28;100.00
63006;BME280;53704;52.532;6.426;2022-12-07T01:06:28;101649.78;;;2.31;100.00
63006;BME280;53704;52.532;6.426;2022-12-07T01:08:54;101651.09;;;2.08;100.00
63006;BME280;53704;52.532;6.426;2022-12-07T01:11:22;101654.53;;;2.10;100.00
63006;BME280;53704;52.532;6.426;2022-12-07T01:13:52;101656.91;;;2.14;100.00
63006;BME280;53704;52.532;6.426;2022-12-07T01:16:19;101657.44;;;2.35;100.00
63006;BME280;53704;52.532;6.426;2022-12-07T01:18:52;101662.56;;;2.08;100.00
63006;BME280;53704;52.532;6.426;2022-12-07T01:21:20;101664.06;;;1.98;100.00
63006;BME280;53704;52.532;6.426;2022-12-07T01:23:46;101661.41;;;1.98;100.00
63006;BME280;53704;52.532;6.426;2022-12-07T01:26:17;101665.59;;;2.02;100.00
63006;BME280;53704;52.532;6.426;2022-12-07T01:28:43;101667.13;;;2.06;100.00
63006;BME280;53704;52.532;6.426;2022-12-07T01:31:14;101668.91;;;2.22;100.00
63006;BME280;53704;52.532;6.426;2022-12-07T01:33:40;101666.88;;;2.11;100.00
63006;BME280;53704;52.532;6.426;2022-12-07T01:36:13;101662.44;;;1.95;100.00
63006;BME280;53704;52.532;6.426;2022-12-07T01:38:39;101670.47;;;2.10;100.00
63006;BME280;53704;52.532;6.426;2022-12-07T01:41:04;101671.03;;;2.15;100.00
63006;BME280;53704;52.532;6.426;2022-12-07T01:43:32;101666.38;;;2.04;100.00
63006;BME280;53704;52.532;6.426;2022-12-07T01:45:58;101662.03;;;2.17;100.00
63006;BME280;53704;52.532;6.426;2022-12-07T01:48:28;101664.81;;;2.00;100.00
63006;BME280;53704;52.532;6.426;2022-12-07T01:51:01;101662.66;;;2.07;100.00
63006;BME280;53704;52.532;6.426;2022-12-07T01:53:29;101659.16;;;2.06;100.00
63006;BME280;53704;52.532;6.426;2022-12-07T01:55:55;101666.00;;;1.94;100.00
63006;BME280;53704;52.532;6.426;2022-12-07T01:58:22;101657.97;;;1.96;100.00
63006;BME280;53704;52.532;6.426;2022-12-07T02:00:48;101662.34;;;1.97;100.00
63006;BME280;53704;52.532;6.426;2022-12-07T02:03:27;101670.06;;;1.86;100.00
63006;BME280;53704;52.532;6.426;2022-12-07T02:05:55;101667.16;;;1.90;100.00
63006;BME280;53704;52.532;6.426;2022-12-07T02:08:22;101663.53;;;1.91;100.00
63006;BME280;53704;52.532;6.426;2022-12-07T02:10:47;101657.56;;;1.88;100.00
63006;BME280;53704;52.532;6.426;2022-12-07T02:29:34;101660.28;;;2.02;100.00
63006;BME280;53704;52.532;6.426;2022-12-07T02:37:39;101648.75;;;1.87;100.00
63006;BME280;53704;52.532;6.426;2022-12-07T02:42:50;101652.41;;;1.85;100.00
63006;BME280;53704;52.532;6.426;2022-12-07T02:45:18;101651.56;;;1.84;100.00
63006;BME280;53704;52.532;6.426;2022-12-07T02:47:49;101649.59;;;1.88;100.00
63006;BME280;53704;52.532;6.426;2022-12-07T02:50:18;101649.00;;;1.83;100.00
63006;BME280;53704;52.532;6.426;2022-12-07T02:52:45;101651.47;;;1.86;100.00
63006;BME280;53704;52.532;6.426;2022-12-07T02:55:11;101656.75;;;2.02;100.00
63006;BME280;53704;52.532;6.426;2022-12-07T03:00:24;101646.25;;;1.84;100.00
63006;BME280;53704;52.532;6.426;2022-12-07T03:11:01;101645.56;;;1.96;100.00
63006;BME280;53704;52.532;6.426;2022-12-07T03:13:41;101643.22;;;2.06;100.00
63006;BME280;53704;52.532;6.426;2022-12-07T03:16:33;101642.66;;;2.01;100.00
63006;BME280;53704;52.532;6.426;2022-12-07T03:19:20;101640.56;;;2.06;100.00
63006;BME280;53704;52.532;6.426;2022-12-07T03:21:51;101638.97;;;1.88;100.00
63006;BME280;53704;52.532;6.426;2022-12-07T03:24:22;101643.75;;;1.97;100.00
63006;BME280;53704;52.532;6.426;2022-12-07T03:26:56;101642.72;;;1.99;100.00
63006;BME280;53704;52.532;6.426;2022-12-07T03:29:34;101648.72;;;2.03;100.00
63006;BME280;53704;52.532;6.426;2022-12-07T03:32:08;101642.88;;;2.12;100.00
63006;BME280;53704;52.532;6.426;2022-12-07T03:37:14;101633.94;;;2.13;100.00
63006;BME280;53704;52.532;6.426;2022-12-07T03:42:14;101621.97;;;2.06;100.00
63006;BME280;53704;52.532;6.426;2022-12-07T03:44:40;101621.22;;;2.04;100.00
63006;BME280;53704;52.532;6.426;2022-12-07T03:49:52;101616.97;;;2.16;100.00
63006;BME280;53704;52.532;6.426;2022-12-07T03:52:27;101616.97;;;2.16;100.00
63006;BME280;53704;52.532;6.426;2022-12-07T03:57:41;101617.94;;;1.99;100.00
63006;BME280;53704;52.532;6.426;2022-12-07T04:00:09;101622.34;;;2.00;100.00
63006;BME280;53704;52.532;6.426;2022-12-07T04:02:35;101617.34;;;2.10;100.00
63006;BME280;53704;52.532;6.426;2022-12-07T04:05:01;101615.63;;;2.09;100.00
63006;BME280;53704;52.532;6.426;2022-12-07T04:07:26;101619.00;;;1.96;100.00
63006;BME280;53704;52.532;6.426;2022-12-07T04:09:52;101623.97;;;2.03;100.00
63006;BME280;53704;52.532;6.426;2022-12-07T04:12:20;101615.66;;;1.93;100.00
63006;BME280;53704;52.532;6.426;2022-12-07T04:14:45;101611.75;;;1.84;100.00
63006;BME280;53704;52.532;6.426;2022-12-07T04:17:11;101608.66;;;1.76;100.00
63006;BME280;53704;52.532;6.426;2022-12-07T04:19:36;101607.88;;;1.74;100.00
63006;BME280;53704;52.532;6.426;2022-12-07T04:22:03;101612.41;;;1.88;100.00
63006;BME280;53704;52.532;6.426;2022-12-07T04:24:29;101616.88;;;1.87;100.00
63006;BME280;53704;52.532;6.426;2022-12-07T04:26:54;101621.69;;;1.80;100.00
63006;BME280;53704;52.532;6.426;2022-12-07T04:29:21;101607.97;;;1.88;100.00
63006;BME280;53704;52.532;6.426;2022-12-07T04:31:46;101619.28;;;1.76;100.00
63006;BME280;53704;52.532;6.426;2022-12-07T04:34:12;101616.91;;;1.71;100.00
63006;BME280;53704;52.532;6.426;2022-12-07T04:36:39;101619.38;;;1.74;100.00
63006;BME280;53704;52.532;6.426;2022-12-07T04:39:06;101614.66;;;1.63;100.00
63006;BME280;53704;52.532;6.426;2022-12-07T04:41:32;101610.63;;;1.56;100.00
63006;BME280;53704;52.532;6.426;2022-12-07T04:43:59;101620.91;;;1.78;100.00
63006;BME280;53704;52.532;6.426;2022-12-07T04:46:26;101614.91;;;1.75;100.00
63006;BME280;53704;52.532;6.426;2022-12-07T04:48:53;101618.38;;;1.91;100.00
63006;BME280;53704;52.532;6.426;2022-12-07T04:51:22;101607.97;;;1.72;100.00
63006;BME280;53704;52.532;6.426;2022-12-07T04:53:48;101604.88;;;1.80;100.00
63006;BME280;53704;52.532;6.426;2022-12-07T04:56:14;101605.75;;;1.80;100.00
63006;BME280;53704;52.532;6.426;2022-12-07T04:58:41;101605.78;;;1.65;100.00
63006;BME280;53704;52.532;6.426;2022-12-07T05:01:06;101600.63;;;1.61;100.00
63006;BME280;53704;52.532;6.426;2022-12-07T05:03:32;101602.50;;;1.75;100.00
63006;BME280;53704;52.532;6.426;2022-12-07T05:05:57;101603.38;;;1.76;100.00
63006;BME280;53704;52.532;6.426;2022-12-07T05:08:25;101604.72;;;1.67;100.00
63006;BME280;53704;52.532;6.426;2022-12-07T05:10:51;101607.88;;;1.74;100.00
63006;BME280;53704;52.532;6.426;2022-12-07T05:13:16;101612.91;;;1.94;100.00
63006;BME280;53704;52.532;6.426;2022-12-07T05:15:41;101612.25;;;1.75;100.00
63006;BME280;53704;52.532;6.426;2022-12-07T05:18:09;101606.53;;;1.67;100.00
63006;BME280;53704;52.532;6.426;2022-12-07T05:20:35;101607.31;;;1.53;100.00
63006;BME280;53704;52.532;6.426;2022-12-07T05:23:00;101616.19;;;1.52;100.00
63006;BME280;53704;52.532;6.426;2022-12-07T05:25:26;101607.47;;;1.50;100.00
63006;BME280;53704;52.532;6.426;2022-12-07T05:27:51;101614.00;;;1.44;100.00
63006;BME280;53704;52.532;6.426;2022-12-07T05:30:16;101614.69;;;1.32;100.00
63006;BME280;53704;52.532;6.426;2022-12-07T05:32:42;101611.53;;;1.41;100.00
63006;BME280;53704;52.532;6.426;2022-12-07T05:35:07;101611.25;;;1.46;100.00
63006;BME280;53704;52.532;6.426;2022-12-07T05:37:33;101610.47;;;1.59;100.00
63006;BME280;53704;52.532;6.426;2022-12-07T05:39:58;101605.75;;;1.49;100.00
63006;BME280;53704;52.532;6.426;2022-12-07T05:42:24;101599.19;;;1.56;100.00
63006;BME280;53704;52.532;6.426;2022-12-07T05:44:49;101602.00;;;1.53;100.00
63006;BME280;53704;52.532;6.426;2022-12-07T05:47:15;101597.38;;;1.56;100.00
63006;BME280;53704;52.532;6.426;2022-12-07T05:49:41;101593.28;;;1.35;100.00
63006;BME280;53704;52.532;6.426;2022-12-07T05:52:07;101601.00;;;1.39;100.00
63006;BME280;53704;52.532;6.426;2022-12-07T05:54:32;101598.16;;;1.42;100.00
63006;BME280;53704;52.532;6.426;2022-12-07T05:56:58;101606.00;;;1.28;100.00
63006;BME280;53704;52.532;6.426;2022-12-07T05:59:24;101594.81;;;1.55;100.00
63006;BME280;53704;52.532;6.426;2022-12-07T06:02:10;101598.75;;;1.48;100.00
63006;BME280;53704;52.532;6.426;2022-12-07T06:04:41;101591.56;;;1.50;100.00
63006;BME280;53704;52.532;6.426;2022-12-07T06:07:07;101597.38;;;1.40;100.00
63006;BME280;53704;52.532;6.426;2022-12-07T06:09:33;101587.72;;;1.39;100.00
63006;BME280;53704;52.532;6.426;2022-12-07T06:11:59;101592.41;;;1.50;100.00
63006;BME280;53704;52.532;6.426;2022-12-07T06:14:44;101589.50;;;1.55;100.00
63006;BME280;53704;52.532;6.426;2022-12-07T06:17:09;101586.84;;;1.39;100.00
63006;BME280;53704;52.532;6.426;2022-12-07T06:19:36;101586.44;;;1.31;100.00
63006;BME280;53704;52.532;6.426;2022-12-07T06:22:01;101589.91;;;1.31;100.00
63006;BME280;53704;52.532;6.426;2022-12-07T06:24:27;101593.28;;;1.51;100.00
63006;BME280;53704;52.532;6.426;2022-12-07T06:26:53;101590.28;;;1.25;100.00
63006;BME280;53704;52.532;6.426;2022-12-07T06:29:19;101580.94;;;1.34;100.00
63006;BME280;53704;52.532;6.426;2022-12-07T06:31:44;101590.53;;;1.36;100.00
63006;BME280;53704;52.532;6.426;2022-12-07T06:34:12;101597.72;;;1.34;100.00
63006;BME280;53704;52.532;6.426;2022-12-07T06:36:39;101603.91;;;1.35;100.00
63006;BME280;53704;52.532;6.426;2022-12-07T06:39:04;101594.81;;;1.39;100.00
63006;BME280;53704;52.532;6.426;2022-12-07T06:41:31;101608.94;;;1.39;100.00
63006;BME280;53704;52.532;6.426;2022-12-07T06:43:56;101602.34;;;1.31;100.00
63006;BME280;53704;52.532;6.426;2022-12-07T06:46:21;101608.41;;;1.33;100.00
63006;BME280;53704;52.532;6.426;2022-12-07T06:48:47;101609.97;;;1.37;100.00
63006;BME280;53704;52.532;6.426;2022-12-07T06:51:12;101606.97;;;1.43;100.00
63006;BME280;53704;52.532;6.426;2022-12-07T06:53:38;101610.63;;;1.40;100.00
63006;BME280;53704;52.532;6.426;2022-12-07T06:56:04;101603.91;;;1.51;100.00
63006;BME280;53704;52.532;6.426;2022-12-07T06:58:30;101610.22;;;1.48;100.00
63006;BME280;53704;52.532;6.426;2022-12-07T07:00:55;101609.97;;;1.53;100.00
63006;BME280;53704;52.532;6.426;2022-12-07T07:03:21;101609.19;;;1.51;100.00
63006;BME280;53704;52.532;6.426;2022-12-07T07:05:47;101613.38;;;1.55;100.00
63006;BME280;53704;52.532;6.426;2022-12-07T07:08:13;101614.84;;;1.44;100.00
63006;BME280;53704;52.532;6.426;2022-12-07T07:10:39;101610.31;;;1.47;100.00
63006;BME280;53704;52.532;6.426;2022-12-07T07:13:04;101616.56;;;1.61;100.00
63006;BME280;53704;52.532;6.426;2022-12-07T07:15:32;101615.78;;;1.59;100.00
63006;BME280;53704;52.532;6.426;2022-12-07T07:17:57;101617.16;;;1.51;100.00
63006;BME280;53704;52.532;6.426;2022-12-07T07:20:23;101618.97;;;1.66;100.00
63006;BME280;53704;52.532;6.426;2022-12-07T07:22:49;101619.97;;;1.79;100.00
63006;BME280;53704;52.532;6.426;2022-12-07T07:25:14;101612.25;;;1.75;100.00
63006;BME280;53704;52.532;6.426;2022-12-07T07:27:40;101613.28;;;1.72;100.00
63006;BME280;53704;52.532;6.426;2022-12-07T07:30:06;101611.09;;;1.65;100.00
63006;BME280;53704;52.532;6.426;2022-12-07T07:32:32;101616.00;;;1.71;100.00
63006;BME280;53704;52.532;6.426;2022-12-07T07:34:58;101619.47;;;1.57;100.00
63006;BME280;53704;52.532;6.426;2022-12-07T07:37:23;101627.53;;;1.55;100.00
63006;BME280;53704;52.532;6.426;2022-12-07T07:39:49;101626.22;;;1.47;100.00
63006;BME280;53704;52.532;6.426;2022-12-07T07:42:14;101631.94;;;1.39;100.00
63006;BME280;53704;52.532;6.426;2022-12-07T07:44:40;101634.53;;;1.40;100.00
63006;BME280;53704;52.532;6.426;2022-12-07T07:47:05;101623.56;;;1.47;100.00
63006;BME280;53704;52.532;6.426;2022-12-07T07:49:30;101626.22;;;1.62;100.00
63006;BME280;53704;52.532;6.426;2022-12-07T07:51:56;101632.56;;;1.44;100.00
63006;BME280;53704;52.532;6.426;2022-12-07T07:54:21;101629.38;;;1.37;100.00
63006;BME280;53704;52.532;6.426;2022-12-07T07:56:46;101627.88;;;1.49;100.00
63006;BME280;53704;52.532;6.426;2022-12-07T07:59:12;101631.63;;;1.45;100.00
63006;BME280;53704;52.532;6.426;2022-12-07T08:01:37;101634.69;;;1.37;100.00
63006;BME280;53704;52.532;6.426;2022-12-07T08:04:03;101636.66;;;1.66;100.00
63006;BME280;53704;52.532;6.426;2022-12-07T08:06:28;101628.78;;;1.48;100.00
63006;BME280;53704;52.532;6.426;2022-12-07T08:08:54;101638.06;;;1.57;100.00
63006;BME280;53704;52.532;6.426;2022-12-07T08:11:19;101631.94;;;1.71;100.00
63006;BME280;53704;52.532;6.426;2022-12-07T08:13:46;101634.69;;;1.69;100.00
63006;BME280;53704;52.532;6.426;2022-12-07T08:16:14;101632.56;;;1.60;100.00
63006;BME280;53704;52.532;6.426;2022-12-07T08:18:41;101634.44;;;1.58;100.00
63006;BME280;53704;52.532;6.426;2022-12-07T08:21:07;101635.22;;;1.60;100.00
63006;BME280;53704;52.532;6.426;2022-12-07T08:23:34;101635.06;;;1.63;100.00
63006;BME280;53704;52.532;6.426;2022-12-07T08:26:01;101640.88;;;1.70;100.00
63006;BME280;53704;52.532;6.426;2022-12-07T08:28:28;101638.31;;;1.68;100.00
63006;BME280;53704;52.532;6.426;2022-12-07T08:30:59;101644.72;;;1.80;100.00
63006;BME280;53704;52.532;6.426;2022-12-07T08:33:25;101650.63;;;1.85;100.00
63006;BME280;53704;52.532;6.426;2022-12-07T08:35:51;101645.84;;;1.76;100.00
63006;BME280;53704;52.532;6.426;2022-12-07T08:38:16;101643.34;;;1.89;100.00
63006;BME280;53704;52.532;6.426;2022-12-07T08:40:42;101642.50;;;1.88;100.00
63006;BME280;53704;52.532;6.426;2022-12-07T08:43:07;101638.97;;;1.88;100.00
63006;BME280;53704;52.532;6.426;2022-12-07T08:45:32;101643.75;;;1.97;100.00
63006;BME280;53704;52.532;6.426;2022-12-07T08:48:09;101640.84;;;2.02;100.00
63006;BME280;53704;52.532;6.426;2022-12-07T08:50:36;101645.31;;;2.01;100.00
63006;BME280;53704;52.532;6.426;2022-12-07T08:53:03;101640.84;;;2.02;100.00
63006;BME280;53704;52.532;6.426;2022-12-07T08:55:31;101643.75;;;1.97;100.00
63006;BME280;53704;52.532;6.426;2022-12-07T08:57:59;101635.16;;;2.08;100.00
63006;BME280;53704;52.532;6.426;2022-12-07T09:00:26;101630.69;;;2.08;100.00
63006;BME280;53704;52.532;6.426;2022-12-07T09:02:53;101636.88;;;2.09;100.00
63006;BME280;53704;52.532;6.426;2022-12-07T09:05:18;101635.00;;;2.11;100.00
63006;BME280;53704;52.532;6.426;2022-12-07T09:07:47;101627.19;;;2.08;100.00
63006;BME280;53704;52.532;6.426;2022-12-07T09:10:14;101637.22;;;2.19;100.00
63006;BME280;53704;52.532;6.426;2022-12-07T09:12:40;101633.94;;;2.13;100.00
63006;BME280;53704;52.532;6.426;2022-12-07T09:15:06;101631.19;;;2.15;100.00
63006;BME280;53704;52.532;6.426;2022-12-07T09:17:32;101626.41;;;2.22;100.00
63006;BME280;53704;52.532;6.426;2022-12-07T09:19:58;101623.03;;;2.18;100.00
63006;BME280;53704;52.532;6.426;2022-12-07T09:22:23;101619.00;;;2.27;100.00
63006;BME280;53704;52.532;6.426;2022-12-07T09:24:49;101626.81;;;2.30;100.00
63006;BME280;53704;52.532;6.426;2022-12-07T09:27:14;101627.66;;;2.30;100.00
63006;BME280;53704;52.532;6.426;2022-12-07T09:29:41;101639.16;;;2.31;100.00
63006;BME280;53704;52.532;6.426;2022-12-07T09:32:07;101646.72;;;2.37;100.00
63006;BME280;53704;52.532;6.426;2022-12-07T09:34:32;101645.41;;;2.30;100.00
63006;BME280;53704;52.532;6.426;2022-12-07T09:36:58;101642.38;;;2.36;100.00
63006;BME280;53704;52.532;6.426;2022-12-07T09:39:25;101648.28;;;2.41;100.00
63006;BME280;53704;52.532;6.426;2022-12-07T09:41:52;101636.63;;;2.44;100.00
63006;BME280;53704;52.532;6.426;2022-12-07T09:44:23;101649.03;;;2.43;100.00
63006;BME280;53704;52.532;6.426;2022-12-07T09:46:49;101644.91;;;2.53;100.00
63006;BME280;53704;52.532;6.426;2022-12-07T09:49:23;101643.88;;;2.70;100.00
63006;BME280;53704;52.532;6.426;2022-12-07T09:54:36;101632.66;;;2.65;100.00
63006;BME280;53704;52.532;6.426;2022-12-07T09:57:05;101628.22;;;2.66;100.00
63006;BME280;53704;52.532;6.426;2022-12-07T09:59:30;101631.81;;;2.65;100.00
63006;BME280;53704;52.532;6.426;2022-12-07T10:02:35;101626.50;;;2.79;100.00
63006;BME280;53704;52.532;6.426;2022-12-07T10:05:04;101622.06;;;2.94;100.00
63006;BME280;53704;52.532;6.426;2022-12-07T10:07:30;101624.44;;;3.13;100.00
63006;BME280;53704;52.532;6.426;2022-12-07T10:09:55;101622.88;;;3.23;100.00
63006;BME280;53704;52.532;6.426;2022-12-07T10:12:21;101624.97;;;3.33;100.00
63006;BME280;53704;52.532;6.426;2022-12-07T10:14:56;101621.56;;;3.31;100.00
63006;BME280;53704;52.532;6.426;2022-12-07T10:17:30;101620.50;;;3.33;100.00
63006;BME280;53704;52.532;6.426;2022-12-07T10:20:20;101615.25;;;3.46;100.00
63006;BME280;53704;52.532;6.426;2022-12-07T10:25:21;101614.06;;;3.65;100.00
63006;BME280;53704;52.532;6.426;2022-12-07T10:30:32;101602.91;;;3.72;100.00
63006;BME280;53704;52.532;6.426;2022-12-07T10:32:58;101599.13;;;3.62;100.00
63006;BME280;53704;52.532;6.426;2022-12-07T10:35:29;101596.84;;;3.70;100.00
63006;BME280;53704;52.532;6.426;2022-12-07T10:37:59;101590.66;;;3.70;100.00
63006;BME280;53704;52.532;6.426;2022-12-07T10:40:33;101596.84;;;3.70;100.00
63006;BME280;53704;52.532;6.426;2022-12-07T10:43:02;101593.31;;;3.70;100.00
63006;BME280;53704;52.532;6.426;2022-12-07T10:45:28;101590.25;;;3.76;100.00
63006;BME280;53704;52.532;6.426;2022-12-07T10:48:05;101590.47;;;3.86;100.00
63006;BME280;53704;52.532;6.426;2022-12-07T10:53:52;101578.78;;;3.88;100.00
63006;BME280;53704;52.532;6.426;2022-12-07T11:18:00;101556.16;;;4.72;100.00
63006;BME280;53704;52.532;6.426;2022-12-07T11:23:40;101559.91;;;4.70;100.00
63006;BME280;53704;52.532;6.426;2022-12-07T11:26:23;101554.59;;;4.57;100.00
63006;BME280;53704;52.532;6.426;2022-12-07T11:29:17;101559.78;;;4.46;100.00
63006;BME280;53704;52.532;6.426;2022-12-07T11:37:11;101554.09;;;3.99;100.00
63006;BME280;53704;52.532;6.426;2022-12-07T11:39:47;101548.16;;;4.08;100.00
63006;BME280;53704;52.532;6.426;2022-12-07T11:42:24;101542.41;;;4.27;100.00
63006;BME280;53704;52.532;6.426;2022-12-07T11:45:03;101546.84;;;4.14;100.00
63006;BME280;53704;52.532;6.426;2022-12-07T11:47:45;101542.50;;;4.13;100.00
63006;BME280;53704;52.532;6.426;2022-12-07T11:50:32;101539.13;;;4.37;100.00
63006;BME280;53704;52.532;6.426;2022-12-07T11:53:02;101535.47;;;4.50;100.00
63006;BME280;53704;52.532;6.426;2022-12-07T12:04:05;101511.06;;;4.31;100.00
63006;BME280;53704;52.532;6.426;2022-12-07T12:06:43;101508.72;;;4.39;100.00
63006;BME280;53704;52.532;6.426;2022-12-07T12:09:17;101504.66;;;4.59;100.00
63006;BME280;53704;52.532;6.426;2022-12-07T12:28:33;101481.22;;;4.39;100.00
63006;BME280;53704;52.532;6.426;2022-12-07T12:33:35;101474.28;;;4.36;100.00
63006;BME280;53704;52.532;6.426;2022-12-07T12:44:03;101480.78;;;4.45;100.00
63006;BME280;53704;52.532;6.426;2022-12-07T12:55:12;101471.03;;;4.57;100.00
63006;BME280;53704;52.532;6.426;2022-12-07T12:57:39;101471.25;;;4.79;100.00
63006;BME280;53704;52.532;6.426;2022-12-07T13:00:22;101468.56;;;4.66;100.00
63006;BME280;53704;52.532;6.426;2022-12-07T13:02:55;101464.66;;;4.59;100.00
63006;BME280;53704;52.532;6.426;2022-12-07T13:05:31;101455.06;;;4.94;100.00
63006;BME280;53704;52.532;6.426;2022-12-07T13:08:00;101467.91;;;4.76;100.00
63006;BME280;53704;52.532;6.426;2022-12-07T13:15:45;101454.34;;;4.42;100.00
63006;BME280;53704;52.532;6.426;2022-12-07T13:20:57;101448.31;;;4.64;100.00
63006;BME280;53704;52.532;6.426;2022-12-07T13:28:45;101448.31;;;4.64;100.00
63006;BME280;53704;52.532;6.426;2022-12-07T13:33:36;101432.13;;;4.54;100.00
63006;BME280;53704;52.532;6.426;2022-12-07T13:36:02;101435.41;;;4.70;100.00
63006;BME280;53704;52.532;6.426;2022-12-07T13:38:31;101425.94;;;4.53;100.00
63006;BME280;53704;52.532;6.426;2022-12-07T13:41:17;101425.75;;;4.44;100.00
63006;BME280;53704;52.532;6.426;2022-12-07T13:43:54;101431.41;;;4.26;100.00
63006;BME280;53704;52.532;6.426;2022-12-07T13:46:25;101417.31;;;4.50;100.00
63006;BME280;53704;52.532;6.426;2022-12-07T13:48:52;101419.88;;;4.51;100.00
63006;BME280;53704;52.532;6.426;2022-12-07T13:51:27;101420.72;;;4.39;100.00
63006;BME280;53704;52.532;6.426;2022-12-07T13:54:01;101420.38;;;4.57;100.00
63006;BME280;53704;52.532;6.426;2022-12-07T13:56:34;101411.69;;;4.42;100.00
63006;BME280;53704;52.532;6.426;2022-12-07T13:59:00;101411.91;;;4.39;100.00
63006;BME280;53704;52.532;6.426;2022-12-07T14:01:26;101414.22;;;4.43;100.00
63006;BME280;53704;52.532;6.426;2022-12-07T14:03:52;101422.16;;;4.32;100.00
63006;BME280;53704;52.532;6.426;2022-12-07T14:06:24;101412.53;;;4.29;100.00
63006;BME280;53704;52.532;6.426;2022-12-07T14:09:05;101416.84;;;4.19;100.00
63006;BME280;53704;52.532;6.426;2022-12-07T14:11:31;101408.81;;;4.32;100.00
63006;BME280;53704;52.532;6.426;2022-12-07T14:13:58;101402.97;;;4.14;100.00
63006;BME280;53704;52.532;6.426;2022-12-07T14:16:42;101414.56;;;4.39;100.00
63006;BME280;53704;52.532;6.426;2022-12-07T14:19:53;101408.28;;;4.27;100.00
63006;BME280;53704;52.532;6.426;2022-12-07T14:22:33;101412.94;;;4.36;100.00
63006;BME280;53704;52.532;6.426;2022-12-07T14:27:58;101410.75;;;4.17;100.00
63006;BME280;53704;52.532;6.426;2022-12-07T14:30:26;101407.84;;;4.33;100.00
63006;BME280;53704;52.532;6.426;2022-12-07T14:33:03;101401.06;;;4.16;100.00
63006;BME280;53704;52.532;6.426;2022-12-07T14:35:29;101406.25;;;4.05;100.00
63006;BME280;53704;52.532;6.426;2022-12-07T14:37:55;101401.16;;;3.76;100.00
63006;BME280;53704;52.532;6.426;2022-12-07T14:40:23;101399.47;;;3.75;100.00
63006;BME280;53704;52.532;6.426;2022-12-07T14:42:51;101401.69;;;3.81;100.00
63006;BME280;53704;52.532;6.426;2022-12-07T14:45:21;101398.19;;;3.80;100.00
63006;BME280;53704;52.532;6.426;2022-12-07T14:47:46;101394.03;;;3.89;100.00
63006;BME280;53704;52.532;6.426;2022-12-07T14:50:14;101390.28;;;3.92;100.00
63006;BME280;53704;52.532;6.426;2022-12-07T14:52:40;101401.94;;;3.91;100.00
63006;BME280;53704;52.532;6.426;2022-12-07T14:55:15;101382.41;;;3.77;100.00
63006;BME280;53704;52.532;6.426;2022-12-07T14:57:42;101389.75;;;3.87;100.00
63006;BME280;53704;52.532;6.426;2022-12-07T15:00:09;101383.91;;;3.82;100.00
63006;BME280;53704;52.532;6.426;2022-12-07T15:02:38;101381.34;;;3.80;100.00
63006;BME280;53704;52.532;6.426;2022-12-07T15:05:03;101379.31;;;3.71;100.00
63006;BME280;53704;52.532;6.426;2022-12-07T15:07:29;101382.63;;;3.87;100.00
63006;BME280;53704;52.532;6.426;2022-12-07T15:09:54;101376.22;;;4.03;100.00
63006;BME280;53704;52.532;6.426;2022-12-07T15:12:20;101381.13;;;3.70;100.00
63006;BME280;53704;52.532;6.426;2022-12-07T15:14:45;101375.69;;;3.97;100.00
63006;BME280;53704;52.532;6.426;2022-12-07T15:17:11;101383.69;;;3.85;100.00
63006;BME280;53704;52.532;6.426;2022-12-07T15:19:37;101380.94;;;3.86;100.00
63006;BME280;53704;52.532;6.426;2022-12-07T15:22:03;101380.72;;;3.89;100.00
63006;BME280;53704;52.532;6.426;2022-12-07T15:24:28;101374.41;;;3.90;100.00
63006;BME280;53704;52.532;6.426;2022-12-07T15:26:54;101370.91;;;3.77;100.00